Time;durP1;ratioP1;P1;durP2;ratioP2;P2;SDS_P1;SDS_P2;PMS_P1;PMS_P2;Temp;Humidity;BMP_temperature;BMP_pressure;BME280_temperature;BME280_humidity;BME280_pressure;Samples;Min_cycle;Max_cycle;Signal;HPM_P1;HPM_P2
2021/11/10 00:02:04;;;;;;;3.10;2.07;;;;;;;-0.66;83.28;97510.08;1761925;81;21065;-68
2021/11/10 00:04:30;;;;;;;6.40;2.50;;;;;;;-0.60;83.58;97512.52;1762263;81;21042;-68
2021/11/10 00:06:57;;;;;;;5.83;3.03;;;;;;;-0.63;83.56;97511.03;1762580;81;21469;-66
2021/11/10 00:09:24;;;;;;;10.90;5.90;;;;;;;-0.63;83.74;97505.84;1762296;81;21026;-68
2021/11/10 00:11:51;;;;;;;11.13;6.40;;;;;;;-0.65;83.73;97510.96;1762275;81;21078;-68
2021/11/10 00:14:18;;;;;;;5.80;3.80;;;;;;;-0.64;84.12;97518.33;1762088;81;21124;-68
2021/11/10 00:16:44;;;;;;;6.60;3.67;;;;;;;-0.62;83.74;97519.31;1762371;81;21086;-68
2021/11/10 00:19:11;;;;;;;6.50;3.00;;;;;;;-0.65;83.25;97513.55;1762011;81;21505;-68
2021/11/10 00:21:38;;;;;;;3.00;2.23;;;;;;;-0.62;83.68;97508.53;1762351;81;21126;-68
2021/11/10 00:24:07;;;;;;;5.73;2.23;;;;;;;-0.59;83.37;97511.70;1762234;81;21543;-68
2021/11/10 00:26:35;;;;;;;3.83;2.30;;;;;;;-0.56;83.55;97493.71;1762473;81;21066;-68
2021/11/10 00:29:02;;;;;;;4.77;2.60;;;;;;;-0.62;83.38;97491.68;1762209;81;21145;-68
2021/11/10 00:31:29;;;;;;;6.97;3.10;;;;;;;-0.62;83.31;97490.80;1762583;81;21006;-68
2021/11/10 00:33:56;;;;;;;5.80;2.77;;;;;;;-0.58;83.68;97488.46;1762245;81;21043;-68
2021/11/10 00:36:23;;;;;;;6.80;2.97;;;;;;;-0.59;83.51;97489.66;1762259;81;21018;-68
2021/11/10 00:38:50;;;;;;;4.83;2.60;;;;;;;-0.57;83.69;97481.16;1762190;81;21086;-68
2021/11/10 00:41:17;;;;;;;5.00;3.00;;;;;;;-0.50;83.93;97484.58;1762515;81;20990;-68
2021/11/10 00:43:45;;;;;;;5.13;3.17;;;;;;;-0.52;83.25;97479.70;1762236;81;21114;-68
2021/11/10 00:46:11;;;;;;;4.57;2.83;;;;;;;-0.66;82.83;97489.34;1762688;81;21022;-68
2021/11/10 00:48:38;;;;;;;3.13;2.07;;;;;;;-0.78;82.57;97487.73;1762080;81;21022;-68
2021/11/10 00:51:05;;;;;;;3.50;2.43;;;;;;;-0.80;83.08;97491.56;1762365;81;21010;-68
2021/11/10 00:53:32;;;;;;;3.00;2.00;;;;;;;-0.73;83.55;97493.69;1762243;81;21062;-68
2021/11/10 00:55:59;;;;;;;5.60;2.00;;;;;;;-0.75;83.46;97484.93;1762218;81;21125;-68
2021/11/10 00:58:27;;;;;;;4.23;2.30;;;;;;;-0.74;83.36;97491.00;1728236;81;21019;-68
2021/11/10 01:00:53;;;;;;;2.20;1.70;;;;;;;-0.76;83.52;97499.09;1762319;81;21540;-68
2021/11/10 01:03:22;;;;;;;3.30;1.83;;;;;;;-0.77;83.72;97499.91;1761954;81;21532;-68
2021/11/10 01:05:49;;;;;;;3.33;1.83;;;;;;;-0.82;83.20;97501.36;1762652;81;21070;-68
2021/11/10 01:08:16;;;;;;;3.80;2.33;;;;;;;-0.78;83.45;97504.59;1762216;81;21098;-68
2021/11/10 01:10:42;;;;;;;3.13;2.00;;;;;;;-0.73;83.69;97502.77;1762051;81;21034;-68
2021/11/10 01:13:09;;;;;;;2.80;1.77;;;;;;;-0.78;83.52;97495.14;1762197;81;21157;-68
2021/11/10 01:15:39;;;;;;;5.10;2.20;;;;;;;-0.85;83.71;97486.94;1762136;81;21543;-68
2021/11/10 01:18:06;;;;;;;4.07;2.63;;;;;;;-0.89;83.37;97484.56;1762293;81;21508;-68
2021/11/10 01:20:35;;;;;;;4.83;2.47;;;;;;;-0.91;84.37;97483.57;1762487;81;21007;-68
2021/11/10 01:23:02;;;;;;;3.63;2.20;;;;;;;-0.95;84.07;97477.75;1762400;81;21022;-68
2021/11/10 01:25:29;;;;;;;2.20;1.63;;;;;;;-0.87;84.28;97479.06;1762105;81;21003;-68
2021/11/10 01:27:56;;;;;;;2.97;1.90;;;;;;;-0.83;83.89;97477.52;1762181;81;21114;-68
2021/11/10 01:30:24;;;;;;;3.27;1.83;;;;;;;-0.88;83.66;97482.48;1762221;81;21098;-68
2021/11/10 01:32:51;;;;;;;3.73;2.30;;;;;;;-0.84;83.86;97488.30;1761794;81;21066;-68
2021/11/10 01:35:19;;;;;;;4.30;2.10;;;;;;;-0.76;84.13;97491.31;1762178;81;21018;-68
2021/11/10 01:37:46;;;;;;;2.93;2.10;;;;;;;-0.65;84.16;97485.04;1762232;81;20995;-68
2021/11/10 01:40:16;;;;;;;2.53;1.70;;;;;;;-0.59;84.24;97472.39;1762121;81;21118;-68
2021/11/10 01:42:46;;;;;;;3.60;1.77;;;;;;;-0.53;84.13;97470.53;1762455;81;21038;-68
2021/11/10 01:45:16;;;;;;;3.73;1.70;;;;;;;-0.48;83.92;97463.89;1762528;81;21015;-68
2021/11/10 01:47:45;;;;;;;3.57;2.50;;;;;;;-0.48;83.59;97459.62;1728481;81;21082;-68
2021/11/10 01:50:16;;;;;;;4.13;2.10;;;;;;;-0.51;83.40;97462.03;1762450;81;21019;-68
2021/11/10 01:52:45;;;;;;;2.30;1.57;;;;;;;-0.63;82.94;97467.88;1728430;81;21091;-68
2021/11/10 01:55:13;;;;;;;2.73;1.70;;;;;;;-0.67;82.94;97468.50;1762360;81;21529;-68
2021/11/10 01:57:43;;;;;;;2.50;1.70;;;;;;;-0.79;82.80;97469.12;1762741;81;21534;-68
2021/11/10 02:00:29;;;;;;;3.50;1.77;;;;;;;-0.80;83.15;97468.23;1762619;81;21030;-68
2021/11/10 02:02:57;;;;;;;1.93;1.33;;;;;;;-0.78;83.33;97460.15;1761169;81;21066;-68
2021/11/10 02:05:44;;;;;;;2.13;1.30;;;;;;;-0.70;83.35;97447.61;1762623;81;21019;-68
2021/11/10 02:08:13;;;;;;;2.60;1.83;;;;;;;-0.72;82.84;97436.25;1762131;81;21523;-68
2021/11/10 02:10:40;;;;;;;4.33;2.30;;;;;;;-0.79;82.72;97436.31;1728876;81;21014;-68
2021/11/10 02:13:08;;;;;;;3.83;2.07;;;;;;;-0.81;82.89;97432.73;1762604;81;21015;-68
2021/11/10 02:15:35;;;;;;;5.13;3.00;;;;;;;-0.80;83.10;97432.36;1763744;81;21019;-68
2021/11/10 02:18:04;;;;;;;3.17;1.87;;;;;;;-0.94;83.14;97441.95;1766368;81;21105;-68
2021/11/10 02:20:35;;;;;;;3.17;2.07;;;;;;;-1.07;83.36;97445.56;1766325;81;21002;-68
2021/11/10 02:23:06;;;;;;;4.13;2.50;;;;;;;-1.12;83.58;97444.00;1766498;81;20983;-68
2021/11/10 02:25:34;;;;;;;3.13;2.23;;;;;;;-1.18;83.79;97448.86;1766582;81;21394;-68
2021/11/10 02:28:01;;;;;;;2.63;2.00;;;;;;;-1.16;84.00;97445.03;1766229;81;21022;-68
2021/11/10 02:30:28;;;;;;;2.00;1.33;;;;;;;-1.09;84.11;97441.98;1766202;81;21038;-68
2021/11/10 02:32:59;;;;;;;2.43;1.60;;;;;;;-1.02;84.10;97439.34;1766056;81;21552;-68
2021/11/10 02:35:30;;;;;;;3.20;1.90;;;;;;;-1.02;83.92;97443.23;1766329;81;21090;-68
2021/11/10 02:38:01;;;;;;;3.93;2.00;;;;;;;-1.06;83.90;97447.74;1766126;81;21042;-68
2021/11/10 02:40:29;;;;;;;3.23;1.90;;;;;;;-1.20;83.59;97455.64;1766414;81;21013;-68
2021/11/10 02:42:57;;;;;;;3.03;2.10;;;;;;;-1.30;84.05;97457.22;1766084;81;21066;-68
2021/11/10 02:45:25;;;;;;;3.37;1.97;;;;;;;-1.23;84.22;97454.59;1766334;81;21026;-68
2021/11/10 02:47:53;;;;;;;3.83;1.90;;;;;;;-1.15;84.38;97452.02;1766081;81;21105;-68
2021/11/10 02:50:20;;;;;;;2.80;1.77;;;;;;;-1.06;84.44;97458.99;1765994;81;21078;-68
2021/11/10 02:52:46;;;;;;;2.03;1.63;;;;;;;-1.10;83.84;97454.47;1766152;81;21610;-68
2021/11/10 02:55:13;;;;;;;5.73;2.03;;;;;;;-1.07;83.94;97446.86;1766282;81;21030;-68
2021/11/10 02:57:40;;;;;;;6.70;1.87;;;;;;;-1.02;84.08;97444.53;1765977;81;21615;-68
2021/11/10 03:00:11;;;;;;;2.17;1.60;;;;;;;-1.07;83.76;97448.16;1766281;81;21002;-68
2021/11/10 03:02:40;;;;;;;2.35;1.90;;;;;;;-1.03;83.70;97463.45;1766497;81;21495;-68
2021/11/10 03:05:09;;;;;;;2.20;1.50;;;;;;;-1.00;83.83;97453.28;1766018;81;21002;-68
2021/11/10 03:07:36;;;;;;;3.40;1.60;;;;;;;-1.13;83.44;97450.41;1766124;81;21078;-68
2021/11/10 03:10:05;;;;;;;3.77;1.70;;;;;;;-1.11;83.57;97456.17;1766026;81;21130;-68
2021/11/10 03:12:32;;;;;;;3.40;2.20;;;;;;;-1.08;83.78;97459.33;1766339;81;21086;-68
2021/11/10 03:15:00;;;;;;;1.83;1.50;;;;;;;-1.08;83.60;97464.52;1765930;81;21054;-68
2021/11/10 03:17:27;;;;;;;1.47;1.17;;;;;;;-1.06;83.82;97460.70;1762212;81;21026;-68
2021/11/10 03:19:55;;;;;;;2.80;1.80;;;;;;;-1.18;83.06;97467.39;1762446;81;21030;-68
2021/11/10 03:22:23;;;;;;;3.13;1.53;;;;;;;-1.22;83.33;97468.90;1762389;81;20991;-68
2021/11/10 03:24:51;;;;;;;2.33;1.70;;;;;;;-1.16;83.83;97467.05;1762616;81;21022;-68
2021/11/10 03:27:26;;;;;;;2.10;1.40;;;;;;;-1.12;83.96;97466.43;1762716;81;21014;-68
2021/11/10 03:29:55;;;;;;;1.83;1.20;;;;;;;-1.24;83.36;97458.84;1762777;81;21500;-68
2021/11/10 03:32:25;;;;;;;2.03;1.50;;;;;;;-1.29;83.54;97455.52;1762204;81;21019;-68
2021/11/10 03:34:53;;;;;;;2.03;1.00;;;;;;;-1.25;83.79;97450.60;1762437;81;21014;-68
2021/11/10 03:37:22;;;;;;;2.17;1.50;;;;;;;-1.24;83.90;97454.97;1761620;81;21083;-68
2021/11/10 03:39:49;;;;;;;3.13;1.57;;;;;;;-1.26;83.81;97458.27;1762347;81;21042;-68
2021/11/10 03:42:16;;;;;;;3.53;1.70;;;;;;;-1.28;83.92;97463.80;1762374;81;20999;-68
2021/11/10 03:44:42;;;;;;;2.00;1.50;;;;;;;-1.32;83.84;97465.30;1762569;81;20987;-68
2021/11/10 03:47:10;;;;;;;2.50;1.60;;;;;;;-1.34;83.98;97470.37;1762380;81;21139;-68
2021/11/10 03:49:37;;;;;;;2.60;1.50;;;;;;;-1.34;84.72;97460.42;1762152;81;21026;-68
2021/11/10 03:52:05;;;;;;;2.27;1.60;;;;;;;-1.35;84.70;97467.72;1762057;81;21027;-68
2021/11/10 03:54:32;;;;;;;5.93;3.27;;;;;;;-1.34;84.83;97468.20;1762537;81;21054;-68
2021/11/10 03:56:59;;;;;;;3.37;1.70;;;;;;;-1.43;84.55;97464.69;1762235;81;21548;-68
2021/11/10 03:59:26;;;;;;;4.60;1.40;;;;;;;-1.47;84.22;97461.42;1762145;81;21057;-68
2021/11/10 04:01:53;;;;;;;2.07;1.17;;;;;;;-1.41;84.43;97458.28;1762247;81;21063;-68
2021/11/10 04:04:20;;;;;;;1.80;1.23;;;;;;;-1.41;84.27;97463.09;1762331;81;21050;-68
2021/11/10 04:06:46;;;;;;;2.17;1.17;;;;;;;-1.38;84.22;97461.08;1762134;81;21027;-68
2021/11/10 04:09:13;;;;;;;2.10;1.03;;;;;;;-1.36;84.18;97455.18;1762271;81;21133;-68
2021/11/10 04:11:41;;;;;;;1.87;1.23;;;;;;;-1.37;84.05;97453.38;1762278;81;21588;-68
2021/11/10 04:14:10;;;;;;;1.30;0.90;;;;;;;-1.38;83.95;97447.72;1762205;81;21026;-68
2021/11/10 04:16:38;;;;;;;1.67;1.00;;;;;;;-1.38;84.17;97446.84;1762157;81;21544;-68
2021/11/10 04:19:05;;;;;;;2.13;1.10;;;;;;;-1.32;84.54;97451.94;1762189;81;21113;-68
2021/11/10 04:21:33;;;;;;;2.70;1.20;;;;;;;-1.29;84.23;97453.81;1762152;81;21066;-68
2021/11/10 04:24:03;;;;;;;1.70;1.20;;;;;;;-1.38;83.82;97447.72;1762511;81;21102;-68
2021/11/10 04:26:36;;;;;;;3.83;1.60;;;;;;;-1.43;84.16;97444.39;1762506;81;21413;-68
2021/11/10 04:29:06;;;;;;;2.10;1.43;;;;;;;-1.38;84.45;97441.25;1762267;81;20995;-68
2021/11/10 04:31:33;;;;;;;1.60;1.00;;;;;;;-1.35;84.37;97438.83;1762263;81;21109;-68
2021/11/10 04:34:03;;;;;;;2.03;1.20;;;;;;;-1.38;83.79;97437.36;1761954;81;21085;-68
2021/11/10 04:36:31;;;;;;;1.67;1.27;;;;;;;-1.44;83.83;97436.99;1762279;81;21169;-68
2021/11/10 04:38:58;;;;;;;2.97;1.60;;;;;;;-1.41;84.09;97441.45;1762201;81;21027;-68
2021/11/10 04:41:26;;;;;;;2.00;1.10;;;;;;;-1.36;84.20;97447.41;1762431;81;21010;-68
2021/11/10 04:43:54;;;;;;;2.10;1.50;;;;;;;-1.43;83.85;97450.45;1762324;81;21560;-68
2021/11/10 04:48:49;;;;;;;2.83;1.47;;;;;;;-1.43;83.82;97449.16;1762297;81;21086;-68
2021/11/10 04:51:17;;;;;;;3.20;1.80;;;;;;;-1.46;83.63;97454.54;1762262;81;20998;-68
2021/11/10 04:53:48;;;;;;;2.53;1.50;;;;;;;-1.53;83.47;97460.67;1762492;81;21049;-68
2021/11/10 04:56:16;;;;;;;2.70;1.40;;;;;;;-1.54;83.77;97452.43;1762246;81;21058;-68
2021/11/10 04:58:43;;;;;;;2.67;1.60;;;;;;;-1.49;84.27;97451.38;1762194;81;21062;-68
2021/11/10 05:01:26;;;;;;;4.33;1.63;;;;;;;-1.38;84.55;97453.31;1762305;81;21181;-68
2021/11/10 05:03:56;;;;;;;5.55;3.75;;;;;;;-1.29;84.51;97459.40;1762547;81;21541;-68
2021/11/10 05:06:24;;;;;;;3.03;1.80;;;;;;;-1.39;83.66;97456.27;1762210;81;21544;-68
2021/11/10 05:08:53;;;;;;;2.60;1.30;;;;;;;-1.38;83.93;97461.08;1762162;81;20991;-68
2021/11/10 05:11:21;;;;;;;2.50;1.90;;;;;;;-1.33;84.19;97466.11;1762475;81;21037;-68
2021/11/10 05:13:49;;;;;;;2.80;1.70;;;;;;;-1.44;83.64;97462.89;1762521;81;21034;-68
2021/11/10 05:16:17;;;;;;;2.33;1.77;;;;;;;-1.42;83.95;97461.69;1762011;81;21106;-68
2021/11/10 05:18:46;;;;;;;3.60;2.50;;;;;;;-1.36;83.98;97468.50;1762358;81;21118;-68
2021/11/10 05:21:14;;;;;;;2.10;1.50;;;;;;;-1.46;83.74;97475.25;1761963;81;21018;-68
2021/11/10 05:23:41;;;;;;;2.80;1.23;;;;;;;-1.61;83.16;97465.81;1762336;81;21528;-68
2021/11/10 05:26:08;;;;;;;3.60;1.80;;;;;;;-1.62;83.64;97472.19;1762184;81;21094;-68
2021/11/10 05:28:35;;;;;;;2.63;1.40;;;;;;;-1.66;84.09;97471.50;1727305;81;21098;-68
2021/11/10 05:31:01;;;;;;;3.57;1.40;;;;;;;-1.77;83.73;97465.70;1762312;81;21078;-68
2021/11/10 05:33:28;;;;;;;2.63;1.50;;;;;;;-1.79;83.74;97477.28;1762695;81;21536;-68
2021/11/10 05:35:55;;;;;;;2.30;1.50;;;;;;;-1.67;84.48;97471.91;1762238;81;21102;-68
2021/11/10 05:38:22;;;;;;;3.20;2.40;;;;;;;-1.60;84.32;97466.70;1762364;81;21070;-68
2021/11/10 05:40:49;;;;;;;4.13;2.57;;;;;;;-1.64;83.84;97465.64;1762849;81;21002;-68
2021/11/10 05:43:16;;;;;;;5.03;3.40;;;;;;;-1.62;84.20;97476.95;1762861;81;21425;-68
2021/11/10 05:45:42;;;;;;;2.90;2.20;;;;;;;-1.61;84.08;97476.17;1762301;81;21073;-68
2021/11/10 05:48:10;;;;;;;5.20;2.40;;;;;;;-1.70;83.69;97472.14;1762581;81;21030;-68
2021/11/10 05:50:37;;;;;;;2.83;1.53;;;;;;;-1.66;84.04;97477.97;1762336;81;21074;-68
2021/11/10 05:53:04;;;;;;;2.03;1.40;;;;;;;-1.70;83.73;97481.20;1762616;81;21038;-68
2021/11/10 05:55:30;;;;;;;2.03;1.47;;;;;;;-1.69;83.76;97476.09;1762326;81;21595;-68
2021/11/10 05:57:57;;;;;;;2.93;1.53;;;;;;;-1.74;83.63;97474.94;1762476;81;21011;-68
2021/11/10 06:00:24;;;;;;;1.63;1.10;;;;;;;-1.69;83.98;97481.68;1762334;81;21121;-68
2021/11/10 06:02:51;;;;;;;3.50;2.03;;;;;;;-1.56;84.32;97485.50;1762633;81;21027;-68
2021/11/10 06:05:18;;;;;;;3.70;2.30;;;;;;;-1.47;84.45;97486.42;1762246;81;21113;-68
2021/11/10 06:07:45;;;;;;;3.93;2.57;;;;;;;-1.48;83.84;97495.01;1762569;81;21563;-68
2021/11/10 06:10:14;;;;;;;3.57;1.90;;;;;;;-1.55;83.74;97493.75;1762326;81;21145;-67
2021/11/10 06:12:42;;;;;;;1.30;1.00;;;;;;;-1.56;84.00;97494.16;1762595;81;21046;-68
2021/11/10 06:15:10;;;;;;;1.10;1.00;;;;;;;-1.53;84.18;97498.21;1762621;81;21006;-68
2021/11/10 06:17:37;;;;;;;4.17;2.57;;;;;;;-1.53;84.13;97499.91;1765242;81;21057;-68
2021/11/10 06:20:07;;;;;;;8.37;5.13;;;;;;;-1.42;84.57;97501.83;1765772;81;21117;-68
2021/11/10 06:22:34;;;;;;;6.20;3.80;;;;;;;-1.33;84.66;97499.38;1766632;81;21536;-68
2021/11/10 06:25:01;;;;;;;18.00;10.27;;;;;;;-1.19;84.91;97497.56;1766150;81;21113;-68
2021/11/10 06:27:28;;;;;;;19.17;11.40;;;;;;;-1.07;84.93;97497.38;1766400;81;21054;-68
2021/11/10 06:29:55;;;;;;;8.97;4.60;;;;;;;-1.00;84.60;97492.15;1761386;81;21002;-68
2021/11/10 06:32:22;;;;;;;4.20;2.47;;;;;;;-1.06;83.83;97504.33;1766301;81;21057;-68
2021/11/10 06:34:48;;;;;;;5.47;2.93;;;;;;;-1.09;83.85;97502.86;1766009;81;21105;-68
2021/11/10 06:37:15;;;;;;;8.13;5.20;;;;;;;-1.06;83.74;97513.39;1766532;81;21062;-69
2021/11/10 06:39:43;;;;;;;12.77;8.97;;;;;;;-1.04;83.91;97513.08;1766044;81;21121;-68
2021/11/10 06:42:11;;;;;;;11.17;8.73;;;;;;;-0.94;84.71;97516.69;1766202;81;21002;-69
2021/11/10 06:44:38;;;;;;;10.30;6.90;;;;;;;-0.76;85.00;97510.75;1766492;81;21019;-69
2021/11/10 06:47:05;;;;;;;7.60;6.10;;;;;;;-0.55;85.03;97511.95;1766371;81;21524;-68
2021/11/10 06:49:32;;;;;;;8.87;6.07;;;;;;;-0.40;85.06;97514.50;1766351;81;21557;-70
2021/11/10 06:51:59;;;;;;;5.73;3.97;;;;;;;-0.36;84.35;97517.73;1766294;81;21017;-69
2021/11/10 06:54:26;;;;;;;5.87;4.33;;;;;;;-0.34;83.68;97516.53;1766090;81;21042;-68
2021/11/10 06:56:53;;;;;;;7.07;4.03;;;;;;;-0.34;83.42;97516.11;1766303;81;21022;-69
2021/11/10 06:59:20;;;;;;;9.80;4.53;;;;;;;-0.37;83.54;97521.55;1766141;81;21168;-69
2021/11/10 07:01:47;;;;;;;4.53;3.10;;;;;;;-0.31;83.95;97517.57;1766336;81;20963;-69
2021/11/10 07:04:14;;;;;;;7.37;4.87;;;;;;;-0.28;83.44;97516.84;1766356;81;21113;-68
2021/11/10 07:06:41;;;;;;;8.13;4.53;;;;;;;-0.32;83.29;97513.20;1766263;81;20999;-68
2021/11/10 07:09:08;;;;;;;3.60;2.60;;;;;;;-0.30;83.87;97508.12;1766036;81;21038;-68
2021/11/10 07:11:36;;;;;;;4.53;3.50;;;;;;;-0.29;83.89;97513.78;1766555;81;21437;-68
2021/11/10 07:14:05;;;;;;;5.60;4.17;;;;;;;-0.30;84.05;97508.12;1766188;81;21094;-68
2021/11/10 07:16:33;;;;;;;7.60;5.47;;;;;;;-0.27;84.06;97510.45;1765662;81;21057;-68
2021/11/10 07:19:00;;;;;;;6.23;5.10;;;;;;;-0.15;84.58;97513.20;1762392;81;21085;-68
2021/11/10 07:21:27;;;;;;;14.83;8.43;;;;;;;0.05;85.07;97512.97;1762216;81;21086;-69
2021/11/10 07:23:54;;;;;;;14.00;9.80;;;;;;;0.30;85.26;97516.03;1762214;81;21022;-69
2021/11/10 07:26:21;;;;;;;26.07;16.60;;;;;;;0.52;84.99;97511.55;1762764;81;20963;-69
2021/11/10 07:28:48;;;;;;;15.77;9.73;;;;;;;0.66;84.76;97505.77;1762308;81;21035;-68
2021/11/10 07:31:15;;;;;;;6.87;4.47;;;;;;;0.82;84.85;97500.91;1762693;81;21493;-69
2021/11/10 07:33:41;;;;;;;6.53;4.47;;;;;;;1.00;84.67;97508.31;1762269;81;21138;-69
2021/11/10 07:36:08;;;;;;;6.50;4.20;;;;;;;1.19;84.40;97505.33;1762417;81;21061;-68
2021/11/10 07:38:42;;;;;;;6.13;3.80;;;;;;;1.35;84.27;97494.83;1762783;81;21454;-68
2021/11/10 07:41:14;;;;;;;7.55;4.17;;;;;;;1.51;83.75;97502.94;1762848;81;20994;-68
2021/11/10 07:43:39;;;;;;;6.03;3.97;;;;;;;1.63;82.80;97506.11;1762585;81;21054;-68
2021/11/10 07:46:13;;;;;;;4.97;3.40;;;;;;;1.71;82.55;97499.58;1762564;81;21026;-68
2021/11/10 07:48:35;;;;;;;5.73;3.80;;;;;;;1.77;81.72;97504.17;1760971;81;21154;-68
2021/11/10 07:51:03;;;;;;;8.73;4.93;;;;;;;1.76;81.49;97503.67;1762035;81;21579;-68
2021/11/10 07:53:29;;;;;;;9.60;6.27;;;;;;;1.76;81.80;97501.06;1762324;81;21042;-68
2021/11/10 07:55:56;;;;;;;19.27;15.03;;;;;;;1.74;81.99;97501.43;1762644;81;20991;-68
2021/11/10 07:58:23;;;;;;;11.40;6.40;;;;;;;1.81;82.40;97503.47;1762222;81;21086;-68
2021/11/10 08:00:49;;;;;;;9.40;5.10;;;;;;;1.93;82.70;97500.55;1762226;81;21532;-68
2021/11/10 08:03:16;;;;;;;5.80;4.07;;;;;;;2.12;83.05;97503.16;1762243;81;20998;-68
2021/11/10 08:05:44;;;;;;;7.47;5.00;;;;;;;2.29;82.99;97501.32;1762200;81;21086;-68
2021/11/10 08:08:10;;;;;;;6.17;3.90;;;;;;;2.46;82.92;97495.94;1762460;81;21054;-68
2021/11/10 08:10:37;;;;;;;6.23;3.60;;;;;;;2.54;82.44;97491.94;1762270;81;21149;-68
2021/11/10 08:13:04;;;;;;;6.33;4.37;;;;;;;2.59;82.32;97493.03;1728697;81;20995;-68
2021/11/10 08:15:30;;;;;;;8.80;5.03;;;;;;;2.64;82.61;97495.41;1762374;81;21129;-68
2021/11/10 08:17:57;;;;;;;4.93;3.00;;;;;;;2.70;82.21;97494.81;1764667;81;21010;-68
2021/11/10 08:20:24;;;;;;;5.40;3.80;;;;;;;2.69;81.98;97491.28;1765832;81;21147;-68
2021/11/10 08:22:51;;;;;;;6.40;4.30;;;;;;;2.70;81.67;97492.20;1766240;81;21053;-68
2021/11/10 08:25:18;;;;;;;6.93;4.17;;;;;;;2.75;81.24;97490.27;1766053;81;21086;-68
2021/11/10 08:27:46;;;;;;;6.80;4.60;;;;;;;2.80;80.74;97496.56;1766239;81;21050;-68
2021/11/10 08:30:18;;;;;;;4.67;3.50;;;;;;;2.90;80.68;97495.23;1765983;81;21106;-68
2021/11/10 08:32:46;;;;;;;5.73;3.63;;;;;;;3.08;81.38;97487.69;1766354;81;20995;-68
2021/11/10 08:35:13;;;;;;;6.63;3.77;;;;;;;3.24;81.41;97482.25;1766167;81;21090;-68
2021/11/10 08:37:40;;;;;;;5.57;3.70;;;;;;;3.37;80.46;97484.51;1766258;81;21085;-68
2021/11/10 08:40:10;;;;;;;7.10;3.87;;;;;;;3.48;80.11;97478.43;1765916;81;21042;-68
2021/11/10 08:42:38;;;;;;;9.30;5.00;;;;;;;3.58;79.89;97480.56;1766421;81;21033;-68
2021/11/10 08:45:19;;;;;;;5.80;3.57;;;;;;;3.69;79.75;97476.63;1765993;81;21031;-68
2021/11/10 08:47:49;;;;;;;5.97;3.73;;;;;;;3.73;78.88;97472.44;1766154;81;21061;-68
2021/11/10 08:50:20;;;;;;;4.50;3.30;;;;;;;3.84;79.19;97473.72;1766125;81;21038;-67
2021/11/10 08:52:48;;;;;;;6.07;3.63;;;;;;;4.01;79.46;97470.44;1766030;81;21082;-68
2021/11/10 08:55:17;;;;;;;6.93;4.17;;;;;;;4.15;78.53;97467.01;1766271;81;21022;-68
2021/11/10 08:57:46;;;;;;;5.40;3.70;;;;;;;4.20;77.67;97473.29;1766271;81;21089;-68
2021/11/10 09:00:17;;;;;;;6.17;4.07;;;;;;;4.23;77.71;97462.94;1766248;81;21036;-67
2021/11/10 09:02:45;;;;;;;6.17;3.83;;;;;;;4.14;76.74;97460.44;1766507;81;21602;-68
2021/11/10 09:05:13;;;;;;;5.33;3.77;;;;;;;4.22;77.92;97461.59;1766209;81;21022;-68
2021/11/10 09:07:40;;;;;;;7.40;4.40;;;;;;;4.27;77.86;97458.31;1765669;81;21046;-68
2021/11/10 09:10:10;;;;;;;6.33;3.97;;;;;;;4.37;78.02;97456.03;1766408;81;21500;-68
2021/11/10 09:12:39;;;;;;;9.20;4.90;;;;;;;4.48;77.93;97454.67;1766250;81;21118;-68
2021/11/10 09:15:10;;;;;;;13.97;6.70;;;;;;;4.55;77.89;97451.44;1736436;81;21023;-68
2021/11/10 09:17:40;;;;;;;8.17;5.10;;;;;;;4.50;77.79;97453.89;1766182;81;21030;-68
2021/11/10 09:20:12;;;;;;;8.93;5.53;;;;;;;4.56;77.60;97453.20;1766243;81;21038;-68
2021/11/10 09:22:39;;;;;;;7.07;4.40;;;;;;;4.59;77.41;97453.77;1766112;81;21023;-68
2021/11/10 09:25:10;;;;;;;6.43;4.10;;;;;;;4.60;76.82;97448.56;1766275;81;21081;-68
2021/11/10 09:27:39;;;;;;;7.97;3.70;;;;;;;4.50;76.67;97456.92;1766278;81;21017;-68
2021/11/10 09:30:10;;;;;;;6.03;3.90;;;;;;;4.51;76.97;97458.30;1736084;81;21074;-68
2021/11/10 09:32:39;;;;;;;6.30;4.23;;;;;;;4.65;76.88;97455.27;1766246;81;21141;-68
2021/11/10 09:35:10;;;;;;;5.87;3.97;;;;;;;4.74;76.43;97456.90;1766234;81;21089;-68
2021/11/10 09:37:38;;;;;;;4.77;3.73;;;;;;;4.58;75.57;97460.69;1766121;81;21074;-68
2021/11/10 09:40:09;;;;;;;7.37;4.47;;;;;;;4.41;75.53;97453.98;1766008;81;21026;-68
2021/11/10 09:42:37;;;;;;;4.93;3.63;;;;;;;4.15;75.74;97456.56;1766236;81;21544;-67
2021/11/10 09:45:07;;;;;;;6.00;3.60;;;;;;;3.90;75.91;97454.77;1766233;81;20991;-68
2021/11/10 09:47:39;;;;;;;7.40;4.87;;;;;;;3.68;76.52;97459.62;1766310;81;21013;-68
2021/11/10 09:50:08;;;;;;;9.43;5.17;;;;;;;3.43;77.51;97461.28;1766292;81;21030;-68
2021/11/10 09:52:37;;;;;;;7.77;5.10;;;;;;;3.38;78.37;97456.30;1766276;81;21041;-68
2021/11/10 09:55:07;;;;;;;7.40;5.10;;;;;;;3.28;78.81;97462.41;1766194;81;21136;-68
2021/11/10 09:57:34;;;;;;;9.43;6.33;;;;;;;3.08;79.75;97471.63;1766165;81;20994;-68
2021/11/10 10:00:08;;;;;;;10.57;7.20;;;;;;;3.12;80.21;97468.70;1765896;81;21014;-68
2021/11/10 10:02:37;;;;;;;10.00;6.20;;;;;;;3.17;80.78;97461.95;1765867;81;21027;-68
2021/11/10 10:05:06;;;;;;;8.33;5.47;;;;;;;3.09;81.35;97455.13;1765819;81;21086;-68
2021/11/10 10:07:33;;;;;;;8.10;4.93;;;;;;;3.24;80.64;97462.69;1766332;81;20974;-68
2021/11/10 10:10:00;;;;;;;8.80;5.40;;;;;;;3.34;80.33;97461.33;1765976;81;21144;-68
2021/11/10 10:12:26;;;;;;;9.23;5.27;;;;;;;3.33;80.05;97455.23;1766105;81;21015;-68
2021/11/10 10:14:54;;;;;;;8.33;5.03;;;;;;;3.33;80.06;97445.22;1765994;81;21599;-68
2021/11/10 10:17:36;;;;;;;11.23;5.53;;;;;;;3.33;80.86;97447.41;1766255;81;22151;-68
2021/11/10 10:20:06;;;;;;;9.27;5.70;;;;;;;3.50;80.76;97449.34;1766460;81;21022;-68
2021/11/10 10:22:33;;;;;;;7.13;5.10;;;;;;;3.68;80.26;97439.63;1766313;81;20963;-68
2021/11/10 10:25:00;;;;;;;8.67;4.77;;;;;;;3.80;79.26;97433.95;1765986;81;21090;-68
2021/11/10 10:27:33;;;;;;;8.60;5.70;;;;;;;3.89;79.05;97433.42;1766567;81;21014;-68
2021/11/10 10:30:34;;;;;;;9.38;5.40;;;;;;;4.27;79.02;97425.65;1766397;81;21034;-68
2021/11/10 10:33:11;;;;;;;14.10;6.93;;;;;;;4.64;77.88;97421.70;1766312;81;21030;-68
2021/11/10 10:35:54;;;;;;;10.60;6.33;;;;;;;5.42;75.17;97410.25;1766627;81;21541;-69
2021/11/10 10:38:29;;;;;;;9.80;7.97;;;;;;;5.96;72.15;97407.50;1766525;81;21081;-69
2021/11/10 10:41:02;;;;;;;13.43;8.87;;;;;;;6.23;71.07;97406.08;1742086;81;21090;-68
2021/11/10 10:43:29;;;;;;;;;;;;;;;6.68;69.97;97398.08;1769069;81;21029;-69
2021/11/10 10:46:00;;;;;;;11.18;7.03;;;;;;;6.96;67.53;97395.72;1765976;81;20118;-69
2021/11/10 10:48:30;;;;;;;12.25;7.33;;;;;;;7.27;66.58;97390.75;1766492;81;20977;-70
2021/11/10 10:51:04;;;;;;;8.10;5.33;;;;;;;7.76;65.17;97392.25;1736535;81;21600;-69
2021/11/10 10:53:50;;;;;;;10.18;6.42;;;;;;;8.14;64.20;97377.29;1766219;81;21522;-71
2021/11/10 10:56:27;;;;;;;11.63;7.50;;;;;;;8.55;62.94;97372.37;1766417;81;20978;-70
2021/11/10 10:59:05;;;;;;;12.80;9.93;;;;;;;8.86;61.40;97365.44;1766427;81;21021;-69
2021/11/10 11:01:50;;;;;;;9.15;6.75;;;;;;;9.39;60.95;97364.94;1766035;81;21122;-69
2021/11/10 11:04:21;;;;;;;9.05;7.12;;;;;;;9.76;61.75;97359.74;1766308;81;21027;-70
2021/11/10 11:07:02;;;;;;;16.77;11.70;;;;;;;10.46;59.86;97358.39;1766287;81;20990;-70
2021/11/10 11:09:45;;;;;;;12.15;9.03;;;;;;;10.91;58.55;97353.09;1766310;81;21054;-71
2021/11/10 11:12:29;;;;;;;11.10;8.35;;;;;;;10.79;56.04;97352.54;1766564;81;21057;-70
2021/11/10 11:15:14;;;;;;;10.05;7.17;;;;;;;10.88;54.96;97353.48;1766208;81;21085;-70
2021/11/10 11:17:41;;;;;;;8.70;6.15;;;;;;;11.07;53.40;97348.80;1733891;81;21057;-68
2021/11/10 11:20:15;;;;;;;11.55;7.87;;;;;;;11.34;53.74;97352.50;1766351;81;21021;-70
2021/11/10 11:22:48;;;;;;;6.75;5.83;;;;;;;11.61;53.16;97353.11;1766121;81;21030;-71
2021/11/10 11:25:30;;;;;;;9.17;5.83;;;;;;;11.86;53.46;97348.41;1766680;81;21006;-70
2021/11/10 11:28:09;;;;;;;12.80;8.68;;;;;;;11.86;51.37;97340.89;1766331;81;21049;-71
2021/11/10 11:30:52;;;;;;;10.63;8.20;;;;;;;12.33;51.85;97340.22;1766420;81;21095;-71
2021/11/10 11:33:21;;;;;;;12.40;9.55;;;;;;;12.63;50.07;97337.19;1766440;81;21021;-70
2021/11/10 11:35:58;;;;;;;23.70;15.98;;;;;;;12.42;49.49;97335.36;1766239;81;21086;-71
2021/11/10 11:38:29;;;;;;;8.63;7.28;;;;;;;12.75;49.25;97327.90;1766068;81;21065;-71
2021/11/10 11:40:59;;;;;;;8.70;7.05;;;;;;;12.66;49.00;97329.23;1765137;81;21014;-71
2021/11/10 11:43:29;;;;;;;9.50;6.60;;;;;;;12.79;48.38;97329.68;1766263;81;21057;-71
2021/11/10 11:45:58;;;;;;;11.43;8.65;;;;;;;12.94;48.50;97323.05;1766391;81;21033;-71